createdAt,value
2019-05-28T00:02:30.123Z,100513.66
2019-05-28T00:05:22.185Z,100509.54
2019-05-28T00:08:14.242Z,100512.66
2019-05-28T00:11:06.039Z,100513.61
2019-05-28T00:13:58.045Z,100513.61
2019-05-28T00:16:49.934Z,100509.78
2019-05-28T00:19:42.009Z,100507.59
2019-05-28T00:22:34.144Z,100507.53
2019-05-28T00:25:29.286Z,100501.27
2019-05-28T00:28:19.537Z,100506.52
2019-05-28T00:31:11.518Z,100510.33
2019-05-28T00:34:03.560Z,100509.25
2019-05-28T00:36:55.387Z,100509.25
2019-05-28T00:39:47.495Z,100509.38
2019-05-28T00:42:39.611Z,100505.33
2019-05-28T00:45:31.652Z,100514.92
2019-05-28T00:48:23.600Z,100516.34
2019-05-28T00:51:15.470Z,100521.86
2019-05-28T00:54:07.326Z,100521.86
2019-05-28T00:56:59.161Z,100508.36
2019-05-28T00:59:51.020Z,100513.88
2019-05-28T01:02:42.960Z,100518.03
2019-05-28T01:05:35.044Z,100518.07
2019-05-28T01:08:26.906Z,100519.16
2019-05-28T01:11:18.759Z,100519.16
2019-05-28T01:14:10.757Z,100509.28
2019-05-28T01:17:02.859Z,100509.28
2019-05-28T01:19:55.075Z,100507.56
2019-05-28T01:22:47.130Z,100507.59
2019-05-28T01:25:39.336Z,100499.81
2019-05-28T01:28:31.184Z,100494.59
2019-05-28T01:31:23.025Z,100494.09
2019-05-28T01:34:15.061Z,100493.32
2019-05-28T01:37:06.896Z,100477.00
2019-05-28T01:39:59.016Z,100479.45
2019-05-28T01:42:51.057Z,100482.19
2019-05-28T01:45:42.973Z,100480.30
2019-05-28T01:48:34.682Z,100480.30
2019-05-28T01:51:26.493Z,100483.89
2019-05-28T01:54:18.287Z,100489.06
2019-05-28T01:57:10.316Z,100489.06
2019-05-28T02:00:04.364Z,100483.01
2019-05-28T02:02:56.433Z,100475.30
2019-05-28T02:05:48.372Z,100463.16
2019-05-28T02:08:40.341Z,100469.91
2019-05-28T02:11:32.076Z,100469.91
2019-05-28T02:14:24.081Z,100470.98
2019-05-28T02:17:16.209Z,100466.97
2019-05-28T02:20:08.720Z,100465.17
2019-05-28T02:23:00.336Z,100465.17
2019-05-28T02:25:52.228Z,100470.80
2019-05-28T02:28:44.283Z,100477.41
2019-05-28T02:31:36.114Z,100479.64
2019-05-28T02:34:28.147Z,100479.64
2019-05-28T02:37:20.288Z,100483.97
2019-05-28T02:40:13.451Z,100483.97
2019-05-28T02:43:06.316Z,100466.80
2019-05-28T02:45:45.830Z,100478.86
2019-05-28T02:48:37.859Z,100470.94
2019-05-28T02:51:29.654Z,100471.47
2019-05-28T02:54:21.465Z,100464.92
2019-05-28T02:57:13.559Z,100462.46
2019-05-28T03:00:10.598Z,100462.46
2019-05-28T03:03:02.172Z,100478.66
2019-05-28T03:05:54.318Z,100477.66
2019-05-28T03:08:46.809Z,100478.73
2019-05-28T03:11:38.910Z,100479.30
2019-05-28T03:14:30.565Z,100477.91
2019-05-28T03:17:22.326Z,100476.62
2019-05-28T03:20:14.100Z,100477.23
2019-05-28T03:23:05.997Z,100479.89
2019-05-28T03:25:57.847Z,100475.05
2019-05-28T03:28:49.643Z,100485.36
2019-05-28T03:31:41.657Z,100489.81
2019-05-28T03:34:33.483Z,100489.81
2019-05-28T03:37:25.562Z,100493.20
2019-05-28T03:40:20.484Z,100493.20
2019-05-28T03:43:13.683Z,100486.55
2019-05-28T03:46:05.851Z,100484.92
2019-05-28T03:48:58.150Z,100477.45
2019-05-28T03:51:50.493Z,100474.77
2019-05-28T03:54:42.607Z,100474.77
2019-05-28T03:57:34.885Z,100496.53
2019-05-28T04:00:27.160Z,100496.53
2019-05-28T04:03:19.569Z,100487.63
2019-05-28T04:06:11.979Z,100485.61
2019-05-28T04:09:06.797Z,100480.72
2019-05-28T04:11:58.767Z,100480.72
2019-05-28T04:14:50.844Z,100489.58
2019-05-28T04:17:42.948Z,100487.56
2019-05-28T04:20:35.076Z,100487.56
2019-05-28T04:23:27.031Z,100488.86
2019-05-28T04:26:19.094Z,100487.14
2019-05-28T04:29:11.163Z,100491.10
2019-05-28T04:32:02.677Z,100495.25
2019-05-28T04:34:54.485Z,100501.40
2019-05-28T04:37:46.426Z,100510.16
2019-05-28T04:40:38.253Z,100512.50
2019-05-28T04:43:30.402Z,100515.81
2019-05-28T04:46:22.242Z,100519.28
2019-05-28T04:49:14.394Z,100519.28
2019-05-28T04:52:06.245Z,100521.16
2019-05-28T04:54:58.422Z,100521.16
2019-05-28T04:57:51.464Z,100522.27
2019-05-28T05:00:43.571Z,100516.13
2019-05-28T05:03:47.697Z,100516.44
2019-05-28T05:06:39.791Z,100514.63
2019-05-28T05:09:31.625Z,100514.63
2019-05-28T05:12:23.624Z,100524.97
2019-05-28T05:15:15.669Z,100523.61
2019-05-28T05:18:07.474Z,100523.61
2019-05-28T05:20:59.603Z,100536.17
2019-05-28T05:23:51.411Z,100536.17
2019-05-28T05:26:43.423Z,100534.59
2019-05-28T05:29:35.481Z,100547.73
2019-05-28T05:32:27.941Z,100537.08
2019-05-28T05:35:20.169Z,100531.47
2019-05-28T05:38:12.997Z,100531.47
2019-05-28T05:41:05.131Z,100544.91
2019-05-28T05:43:57.190Z,100543.06
2019-05-28T05:46:49.266Z,100543.58
2019-05-28T05:49:41.265Z,100543.58
2019-05-28T05:52:33.065Z,100549.30
2019-05-28T05:55:24.844Z,100548.39
2019-05-28T05:58:16.543Z,100546.98
2019-05-28T06:01:08.515Z,100546.98
2019-05-28T06:04:00.112Z,100553.23
2019-05-28T06:06:52.116Z,100550.72
2019-05-28T06:09:44.188Z,100552.45
2019-05-28T06:12:36.292Z,100550.38
2019-05-28T06:15:28.042Z,100550.38
2019-05-28T06:18:20.018Z,100553.05
2019-05-28T06:21:18.514Z,100553.05
2019-05-28T06:24:07.512Z,100554.09
2019-05-28T06:26:59.508Z,100556.05
2019-05-28T06:29:51.325Z,100559.98
2019-05-28T06:32:43.096Z,100570.52
2019-05-28T06:35:34.863Z,100573.20
2019-05-28T06:38:26.862Z,100572.05
2019-05-28T06:41:18.980Z,100572.05
2019-05-28T06:44:11.130Z,100561.19
2019-05-28T06:47:03.091Z,100568.87
2019-05-28T06:49:54.849Z,100568.87
2019-05-28T06:52:46.948Z,100572.99
2019-05-28T06:55:38.880Z,100579.85
2019-05-28T06:58:39.313Z,100579.85
2019-05-28T07:01:24.246Z,100577.77
2019-05-28T07:04:31.703Z,100582.87
2019-05-28T07:07:10.087Z,100592.81
2019-05-28T07:10:03.555Z,100583.97
2019-05-28T07:12:55.102Z,100584.55
2019-05-28T07:15:47.193Z,100584.55
2019-05-28T07:18:39.007Z,100594.70
2019-05-28T07:21:31.069Z,100593.60
2019-05-28T07:24:23.199Z,100593.60
2019-05-28T07:27:15.276Z,100592.02
2019-05-28T07:30:07.245Z,100596.59
2019-05-28T07:32:59.091Z,100601.78
2019-05-28T07:35:51.337Z,100600.92
2019-05-28T07:38:43.355Z,100600.92
2019-05-28T07:41:35.264Z,100601.98
2019-05-28T07:44:27.307Z,100604.66
2019-05-28T07:47:19.399Z,100600.44
2019-05-28T07:50:11.530Z,100598.08
2019-05-28T07:53:03.356Z,100598.54
2019-05-28T07:55:55.304Z,100596.12
2019-05-28T07:58:47.117Z,100598.69
2019-05-28T08:01:38.978Z,100598.69
2019-05-28T08:04:46.337Z,100601.81
2019-05-28T08:07:24.974Z,100601.81
2019-05-28T08:10:16.804Z,100598.72
2019-05-28T08:13:08.615Z,100599.83
2019-05-28T08:16:17.481Z,100603.18
2019-05-28T08:18:54.223Z,100601.44
2019-05-28T08:21:45.993Z,100601.44
2019-05-28T08:24:38.110Z,100606.28
2019-05-28T08:27:30.314Z,100604.30
2019-05-28T08:30:22.317Z,100606.26
2019-05-28T08:33:13.997Z,100600.84
2019-05-28T08:36:06.162Z,100609.78
2019-05-28T08:38:58.216Z,100609.78
2019-05-28T08:41:49.952Z,100595.84
2019-05-28T08:44:42.079Z,100597.83
2019-05-28T08:47:34.324Z,100592.30
2019-05-28T08:50:34.392Z,100587.75
2019-05-28T08:53:19.948Z,100587.75
2019-05-28T08:56:12.080Z,100596.56
2019-05-28T08:59:03.756Z,100596.56
2019-05-28T09:01:55.365Z,100593.98
2019-05-28T09:04:47.469Z,100595.20
2019-05-28T09:07:39.327Z,100594.80
2019-05-28T09:10:31.410Z,100597.38
2019-05-28T09:13:23.254Z,100595.27
2019-05-28T09:16:14.968Z,100595.27
2019-05-28T09:19:10.388Z,100599.08
2019-05-28T09:22:01.403Z,100599.08
2019-05-28T09:24:53.369Z,100602.45
2019-05-28T09:27:45.627Z,100604.07
2019-05-28T09:30:37.721Z,100604.07
2019-05-28T09:33:30.187Z,100609.81
2019-05-28T09:36:22.031Z,100613.91
2019-05-28T09:39:14.352Z,100608.17
2019-05-28T09:42:07.131Z,100605.30
2019-05-28T09:44:59.078Z,100609.18
2019-05-28T09:47:51.114Z,100612.02
2019-05-28T09:50:44.153Z,100612.02
2019-05-28T09:53:36.125Z,100612.15
2019-05-28T09:56:32.601Z,100611.34
2019-05-28T09:59:22.541Z,100614.58
2019-05-28T10:02:14.723Z,100613.72
2019-05-28T10:05:06.709Z,100613.34
2019-05-28T10:07:58.855Z,100613.34
2019-05-28T10:10:51.017Z,100623.48
2019-05-28T10:13:43.058Z,100624.19
2019-05-28T10:16:35.031Z,100617.59
2019-05-28T10:19:26.924Z,100617.59
2019-05-28T10:22:18.786Z,100620.00
2019-05-28T10:25:10.961Z,100627.28
2019-05-28T10:28:03.000Z,100627.56
2019-05-28T10:30:55.249Z,100633.30
2019-05-28T10:33:47.265Z,100635.92
2019-05-28T10:36:39.195Z,100634.03
2019-05-28T10:39:31.472Z,100634.03
2019-05-28T10:42:23.015Z,100648.33
2019-05-28T10:45:15.181Z,100648.33
2019-05-28T10:48:06.762Z,100656.20
2019-05-28T10:50:58.538Z,100651.44
2019-05-28T10:53:50.400Z,100647.76
2019-05-28T10:56:42.436Z,100659.20
2019-05-28T10:59:34.595Z,100659.20
2019-05-28T11:02:26.333Z,100657.75
2019-05-28T11:05:18.280Z,100656.98
2019-05-28T11:08:10.310Z,100655.66
2019-05-28T11:11:02.479Z,100658.81
2019-05-28T11:13:54.427Z,100663.31
2019-05-28T11:16:46.427Z,100659.91
2019-05-28T11:19:38.588Z,100659.91
2019-05-28T11:22:30.382Z,100655.73
2019-05-28T11:25:22.377Z,100656.45
2019-05-28T11:28:14.421Z,100661.55
2019-05-28T11:31:06.335Z,100656.72
2019-05-28T11:33:58.083Z,100656.92
2019-05-28T11:36:49.902Z,100658.14
2019-05-28T11:39:41.771Z,100659.91
2019-05-28T11:42:33.691Z,100665.69
2019-05-28T11:45:25.439Z,100659.14
2019-05-28T11:48:17.593Z,100667.41
2019-05-28T11:51:09.517Z,100663.78
2019-05-28T11:54:01.568Z,100667.88
2019-05-28T11:56:53.338Z,100669.70
2019-05-28T11:59:45.401Z,100674.97
2019-05-28T12:02:37.120Z,100675.44
2019-05-28T12:05:28.907Z,100675.27
2019-05-28T12:08:20.783Z,100677.64
2019-05-28T12:11:13.454Z,100677.64
2019-05-28T12:14:05.535Z,100680.02
2019-05-28T12:16:57.630Z,100677.20
2019-05-28T12:19:49.338Z,100683.00
2019-05-28T12:22:41.413Z,100680.47
2019-05-28T12:25:33.456Z,100680.47
2019-05-28T12:28:36.925Z,100681.75
2019-05-28T12:31:18.703Z,100690.48
2019-05-28T12:34:10.921Z,100690.48
2019-05-28T12:37:02.783Z,100686.73
2019-05-28T12:39:54.602Z,100686.73
2019-05-28T12:42:46.332Z,100691.80
2019-05-28T12:45:38.313Z,100693.20
2019-05-28T12:48:30.232Z,100702.88
2019-05-28T12:51:22.094Z,100699.45
2019-05-28T12:54:14.281Z,100705.52
2019-05-28T12:57:06.227Z,100700.70
2019-05-28T12:59:58.304Z,100700.70
2019-05-28T13:02:50.563Z,100709.11
2019-05-28T13:05:42.910Z,100709.38
2019-05-28T13:08:35.041Z,100719.62
2019-05-28T13:11:27.298Z,100717.59
2019-05-28T13:14:19.581Z,100717.59
2019-05-28T13:17:11.493Z,100729.80
2019-05-28T13:20:05.357Z,100741.38
2019-05-28T13:22:57.345Z,100744.19
2019-05-28T13:25:49.167Z,100747.39
2019-05-28T13:28:41.271Z,100747.39
2019-05-28T13:31:33.654Z,100746.97
2019-05-28T13:34:25.638Z,100743.39
2019-05-28T13:37:18.807Z,100743.39
2019-05-28T13:40:12.647Z,100748.62
2019-05-28T13:43:04.367Z,100748.62
2019-05-28T13:45:56.134Z,100746.14
2019-05-28T13:48:48.016Z,100750.89
2019-05-28T13:51:39.903Z,100750.89
2019-05-28T13:54:31.760Z,100745.66
2019-05-28T13:57:23.805Z,100745.66
2019-05-28T14:00:19.866Z,100748.77
2019-05-28T14:02:59.486Z,100754.49
2019-05-28T14:05:51.526Z,100754.49
2019-05-28T14:08:47.199Z,100758.97
2019-05-28T14:11:37.672Z,100762.43
2019-05-28T14:14:29.893Z,100765.28
2019-05-28T14:17:22.046Z,100767.31
2019-05-28T14:20:15.728Z,100771.83
2019-05-28T14:23:07.601Z,100771.83
2019-05-28T14:25:59.355Z,100776.11
2019-05-28T14:28:53.827Z,100774.27
2019-05-28T14:31:45.032Z,100783.48
2019-05-28T14:34:36.934Z,100783.48
2019-05-28T14:37:28.845Z,100789.80
2019-05-28T14:40:24.246Z,100789.80
2019-05-28T14:43:14.636Z,100788.98
2019-05-28T14:46:06.763Z,100804.20
2019-05-28T14:48:58.818Z,100807.38
2019-05-28T14:51:51.326Z,100807.38
2019-05-28T14:54:43.491Z,100810.36
2019-05-28T14:57:35.298Z,100810.36
2019-05-28T15:00:26.960Z,100823.05
2019-05-28T15:03:18.665Z,100823.05
2019-05-28T15:06:10.566Z,100836.23
2019-05-28T15:09:19.127Z,100833.28
2019-05-28T15:11:58.350Z,100833.28
2019-05-28T15:14:50.243Z,100839.17
2019-05-28T15:17:42.007Z,100843.03
2019-05-28T15:20:34.141Z,100844.24
2019-05-28T15:23:25.682Z,100852.48
2019-05-28T15:26:17.342Z,100852.48
2019-05-28T15:29:09.489Z,100861.53
2019-05-28T15:32:02.361Z,100856.81
2019-05-28T15:34:54.851Z,100853.95
2019-05-28T15:37:46.828Z,100853.95
2019-05-28T15:40:38.907Z,100869.32
2019-05-28T15:43:31.227Z,100869.32
2019-05-28T15:46:23.190Z,100879.35
2019-05-28T15:49:15.283Z,100879.35
2019-05-28T15:52:08.092Z,100878.72
2019-05-28T15:55:00.614Z,100886.16
2019-05-28T15:57:52.799Z,100891.18
2019-05-28T16:00:44.784Z,100891.18
2019-05-28T16:03:37.065Z,100890.66
2019-05-28T16:06:28.991Z,100890.66
2019-05-28T16:09:21.200Z,100899.38
2019-05-28T16:12:13.390Z,100902.92
2019-05-28T16:15:08.735Z,100902.92
2019-05-28T16:18:00.387Z,100912.00
2019-05-28T16:20:52.652Z,100919.40
2019-05-28T16:23:44.350Z,100919.40
2019-05-28T16:26:36.290Z,100921.97
2019-05-28T16:29:28.464Z,100930.17
2019-05-28T16:32:24.742Z,100930.17
2019-05-28T16:35:13.836Z,100932.19
2019-05-28T16:38:05.641Z,100942.27
2019-05-28T16:40:57.526Z,100942.27
2019-05-28T16:43:49.364Z,100943.92
2019-05-28T16:46:41.155Z,100948.25
2019-05-28T16:49:32.926Z,100954.08
2019-05-28T16:52:24.761Z,100965.36
2019-05-28T16:55:16.861Z,100960.70
2019-05-28T16:58:08.586Z,100968.94
2019-05-28T17:01:20.840Z,100968.94
2019-05-28T17:03:54.585Z,100977.05
2019-05-28T17:06:46.617Z,100982.77
2019-05-28T17:09:38.397Z,100982.77
2019-05-28T17:12:30.457Z,100985.35
2019-05-28T17:15:22.366Z,100988.60
2019-05-28T17:18:14.707Z,100988.60
2019-05-28T17:21:06.598Z,101002.48
2019-05-28T17:23:58.629Z,101001.80
2019-05-28T17:26:50.442Z,101011.49
2019-05-28T17:29:42.540Z,101011.49
2019-05-28T17:32:34.502Z,101026.24
2019-05-28T17:35:26.391Z,101022.72
2019-05-28T17:38:18.078Z,101024.31
2019-05-28T17:41:09.970Z,101034.50
2019-05-28T17:44:02.049Z,101034.50
2019-05-28T17:46:54.171Z,101046.47
2019-05-28T17:49:46.309Z,101052.56
2019-05-28T17:52:38.403Z,101052.56
2019-05-28T17:55:30.405Z,101063.09
2019-05-28T17:58:22.534Z,101072.22
2019-05-28T18:01:14.235Z,101072.22
2019-05-28T18:04:06.370Z,101093.65
2019-05-28T18:06:58.293Z,101093.65
2019-05-28T18:09:50.098Z,101104.95
2019-05-28T18:12:42.105Z,101114.05
2019-05-28T18:15:34.244Z,101121.75
2019-05-28T18:18:26.533Z,101122.03
2019-05-28T18:21:18.548Z,101138.23
2019-05-28T18:24:10.672Z,101136.05
2019-05-28T18:27:02.875Z,101135.28
2019-05-28T18:29:55.041Z,101149.24
2019-05-28T18:32:47.474Z,101149.73
2019-05-28T18:35:39.564Z,101156.00
2019-05-28T18:38:31.676Z,101168.16
2019-05-28T18:41:23.768Z,101168.16
2019-05-28T18:44:15.785Z,101163.89
2019-05-28T18:47:07.991Z,101163.89
2019-05-28T18:50:03.413Z,101176.12
2019-05-28T18:52:53.694Z,101179.09
2019-05-28T18:55:45.804Z,101184.39
2019-05-28T18:58:38.070Z,101197.46
2019-05-28T19:01:30.801Z,101198.44
2019-05-28T19:04:22.841Z,101198.44
2019-05-28T19:07:14.900Z,101212.66
2019-05-28T19:10:06.990Z,101210.40
2019-05-28T19:12:58.587Z,101216.91
2019-05-28T19:15:50.724Z,101222.67
2019-05-28T19:18:42.813Z,101222.67
2019-05-28T19:21:34.707Z,101225.78
2019-05-28T19:24:26.747Z,101225.78
2019-05-28T19:27:18.839Z,101240.89
2019-05-28T19:30:10.879Z,101244.71
2019-05-28T19:33:06.380Z,101249.14
2019-05-28T19:35:58.634Z,101260.11
2019-05-28T19:38:50.577Z,101260.11
2019-05-28T19:41:53.908Z,101264.85
2019-05-28T19:44:36.431Z,101267.98
2019-05-28T19:47:29.760Z,101267.98
2019-05-28T19:50:21.899Z,101283.09
2019-05-28T19:53:14.023Z,101283.09
2019-05-28T19:56:06.413Z,101293.07
2019-05-28T19:58:58.663Z,101294.34
2019-05-28T20:01:50.740Z,101303.73
2019-05-28T20:04:42.759Z,101303.73
2019-05-28T20:07:35.106Z,101316.31
2019-05-28T20:10:27.185Z,101316.31
2019-05-28T20:13:19.317Z,101326.91
2019-05-28T20:16:11.825Z,101331.25
2019-05-28T20:19:04.097Z,101331.25
2019-05-28T20:21:56.914Z,101335.91
2019-05-28T20:24:49.848Z,101342.70
2019-05-28T20:27:41.772Z,101347.58
2019-05-28T20:30:33.967Z,101357.28
2019-05-28T20:33:25.872Z,101355.67
2019-05-28T20:36:17.673Z,101363.72
2019-05-28T20:39:09.982Z,101366.81
2019-05-28T20:42:02.045Z,101372.12
2019-05-28T20:44:54.225Z,101379.79
2019-05-28T20:47:46.347Z,101380.83
2019-05-28T20:50:38.600Z,101380.73
2019-05-28T20:53:36.022Z,101379.31
2019-05-28T20:56:24.268Z,101387.50
2019-05-28T20:59:16.089Z,101387.50
2019-05-28T21:02:08.230Z,101386.16
2019-05-28T21:05:00.048Z,101386.16
2019-05-28T21:07:53.166Z,101401.02
2019-05-28T21:10:46.222Z,101401.64
2019-05-28T21:13:38.448Z,101414.44
2019-05-28T21:16:30.559Z,101407.47
2019-05-28T21:19:22.336Z,101417.70
2019-05-28T21:22:26.066Z,101400.86
2019-05-28T21:25:07.407Z,101422.42
2019-05-28T21:28:00.518Z,101425.48
2019-05-28T21:30:52.890Z,101425.48
2019-05-28T21:33:44.971Z,101430.84
2019-05-28T21:36:37.337Z,101430.84
2019-05-28T21:39:29.739Z,101435.94
2019-05-28T21:42:21.970Z,101444.42
2019-05-28T21:45:14.137Z,101449.25
2019-05-28T21:48:06.207Z,101449.25
2019-05-28T21:50:58.797Z,101447.15
2019-05-28T21:53:50.997Z,101455.34
2019-05-28T21:56:43.783Z,101457.92
2019-05-28T21:59:35.938Z,101466.96
2019-05-28T22:02:27.888Z,101466.96
2019-05-28T22:05:19.697Z,101461.73
2019-05-28T22:08:11.761Z,101461.73
2019-05-28T22:11:04.017Z,101470.13
2019-05-28T22:13:56.101Z,101484.01
2019-05-28T22:16:48.056Z,101484.01
2019-05-28T22:19:39.832Z,101481.30
2019-05-28T22:22:31.643Z,101487.77
2019-05-28T22:25:23.812Z,101488.97
2019-05-28T22:28:15.605Z,101481.93
2019-05-28T22:31:08.157Z,101481.93
2019-05-28T22:34:01.037Z,101490.64
2019-05-28T22:36:53.042Z,101485.81
2019-05-28T22:39:45.140Z,101485.81
2019-05-28T22:42:36.806Z,101486.44
2019-05-28T22:45:28.870Z,101494.62
2019-05-28T22:48:20.676Z,101494.62
2019-05-28T22:51:12.620Z,101494.04
2019-05-28T22:54:06.064Z,101498.58
2019-05-28T22:56:58.469Z,101498.58
2019-05-28T22:59:50.587Z,101508.65
2019-05-28T23:02:42.576Z,101508.65
2019-05-28T23:05:34.372Z,101513.11
2019-05-28T23:08:26.182Z,101516.28
2019-05-28T23:11:17.985Z,101525.45
2019-05-28T23:14:10.302Z,101525.45
2019-05-28T23:17:02.323Z,101520.87
2019-05-28T23:19:54.431Z,101533.14
2019-05-28T23:22:46.301Z,101538.73
2019-05-28T23:25:38.202Z,101540.80
2019-05-28T23:28:30.007Z,101540.80
2019-05-28T23:31:22.110Z,101541.27
2019-05-28T23:34:13.944Z,101535.48
2019-05-28T23:37:06.371Z,101548.44
2019-05-28T23:39:59.252Z,101554.30
2019-05-28T23:42:51.304Z,101557.81
2019-05-28T23:45:43.428Z,101567.72
2019-05-28T23:48:35.113Z,101569.03
2019-05-28T23:51:27.051Z,101571.97
2019-05-28T23:54:19.093Z,101571.97
2019-05-28T23:57:11.905Z,101578.77
